Alva, Wyoming
Current Conditions -  °F | °C
As of 10:15 PM on Friday 28 Nov 2014 (Local Time) from KSPF Reporting Station
Clear Clear  
Wind Chill: 55°   Ceiling: Unl
Heat Index: 55°   Visibility: 10mi
Dew Point: 19°   Wind: 30mph
Humidity: 25%   Direction: 230°SW
Pressure: 29.47"   Gusts: 38mph
Location:  44.69°N, 104.44°W
Report Text: KSPF 290515Z AUTO 23026G33KT 10SM CLR 13/M07 A2947 RMK AO2
Loading
Personal Weather Stations






























Interactive Weather Map New forecast layout! Learn more

10-Day Weather Forecast

Advertisements
Track Severe Weather on mobile